Time;durP1;ratioP1;P1;durP2;ratioP2;P2;SDS_P1;SDS_P2;PMS_P1;PMS_P2;Temp;Humidity;BMP_temperature;BMP_pressure;BME280_temperature;BME280_humidity;BME280_pressure;Samples;Min_cycle;Max_cycle;Signal;HPM_P1;HPM_P2
2021/10/02 00:01:45;;;;;;;5.63;3.17;;;;;;;15.43;74.28;96732.41;5072666;28;20188;-72
2021/10/02 00:34:44;;;;;;;4.30;3.50;;;;;;;14.80;78.07;96738.66;5072499;28;20185;-71
2021/10/02 00:47:06;;;;;;;4.03;3.53;;;;;;;14.89;77.54;96742.41;5072232;28;20203;-71
2021/10/02 00:49:35;;;;;;;4.37;3.97;;;;;;;14.85;77.86;96741.31;5057431;28;20185;-71
2021/10/02 00:52:00;;;;;;;5.47;3.93;;;;;;;14.89;77.72;96742.41;5072108;28;20600;-71
2021/10/02 00:54:26;;;;;;;5.37;4.03;;;;;;;14.90;77.26;96738.72;5072196;28;20204;-71
2021/10/02 00:56:51;;;;;;;4.80;4.23;;;;;;;14.88;77.60;96736.31;5054272;28;20181;-71
2021/10/02 00:59:17;;;;;;;4.53;3.60;;;;;;;14.86;78.01;96733.16;5072152;28;20189;-71
2021/10/02 01:01:56;;;;;;;5.10;3.80;;;;;;;14.79;78.42;96731.78;5055020;28;20216;-71
2021/10/02 01:04:52;;;;;;;4.37;3.87;;;;;;;14.80;78.43;96731.53;5072401;28;20196;-71
2021/10/02 01:07:40;;;;;;;4.50;3.87;;;;;;;14.82;78.40;96739.19;5070800;28;20197;-71
2021/10/02 01:10:26;;;;;;;5.97;3.70;;;;;;;14.83;78.01;96735.50;5072336;28;20236;-71
2021/10/02 01:13:01;;;;;;;5.10;3.63;;;;;;;14.77;78.43;96731.22;5071625;28;20192;-70
2021/10/02 01:15:50;;;;;;;4.80;4.13;;;;;;;14.79;78.53;96739.69;5071826;28;20288;-71
2021/10/02 01:18:43;;;;;;;4.87;4.00;;;;;;;14.82;78.67;96742.63;5072044;28;20178;-71
2021/10/02 01:21:53;;;;;;;4.73;4.30;;;;;;;15.01;77.55;96744.84;5072296;28;20268;-71
2021/10/02 01:24:52;;;;;;;4.77;4.10;;;;;;;14.89;77.75;96732.63;5061237;28;20201;-71
2021/10/02 01:27:40;;;;;;;4.27;3.80;;;;;;;14.90;77.71;96739.50;5071859;28;20184;-71
2021/10/02 01:30:14;;;;;;;5.90;4.30;;;;;;;14.92;77.59;96739.25;5071471;28;20492;-71
2021/10/02 01:32:55;;;;;;;5.87;3.47;;;;;;;14.93;77.61;96735.59;5066776;28;20182;-71
2021/10/02 01:35:45;;;;;;;6.30;4.10;;;;;;;14.92;77.65;96726.06;5071352;28;20539;-71
2021/10/02 01:49:30;;;;;;;6.10;4.03;;;;;;;14.95;77.92;96728.19;5066265;28;20219;-70
2021/10/02 01:51:56;;;;;;;4.43;4.03;;;;;;;14.91;78.20;96724.47;5071144;28;20649;-70
2021/10/02 01:54:22;;;;;;;4.10;3.70;;;;;;;14.97;77.85;96724.25;5057201;28;20284;-70
2021/10/02 01:56:48;;;;;;;5.13;4.20;;;;;;;15.01;77.89;96721.09;5075723;28;20273;-70
2021/10/02 01:59:15;;;;;;;4.40;4.00;;;;;;;14.95;78.28;96720.25;5075110;28;20544;-70
2021/10/02 02:01:44;;;;;;;5.23;4.20;;;;;;;14.85;78.49;96726.28;5057000;28;20264;-70
2021/10/02 02:04:12;;;;;;;5.73;4.20;;;;;;;14.91;78.51;96724.47;5074785;28;20283;-70
2021/10/02 02:06:40;;;;;;;5.13;4.23;;;;;;;14.92;78.22;96718.16;5075241;28;20213;-70
2021/10/02 02:09:08;;;;;;;4.43;4.03;;;;;;;14.91;78.31;96720.00;5074436;28;20229;-70
2021/10/02 02:11:34;;;;;;;5.40;4.10;;;;;;;14.93;78.36;96717.88;5074707;28;20362;-70
2021/10/02 02:14:00;;;;;;;4.93;4.40;;;;;;;14.90;78.30;96718.41;5074871;28;20216;-70
2021/10/02 02:16:29;;;;;;;4.87;4.20;;;;;;;14.88;78.52;96717.84;5074850;28;20269;-70
2021/10/02 02:18:57;;;;;;;5.43;4.43;;;;;;;14.82;78.91;96716.22;5074766;28;20272;-70
2021/10/02 02:21:25;;;;;;;4.50;4.10;;;;;;;14.83;78.80;96698.56;5074954;28;20192;-70
2021/10/02 02:23:51;;;;;;;5.17;4.20;;;;;;;14.89;78.72;96690.41;5074701;28;20216;-70
2021/10/02 02:26:17;;;;;;;4.17;3.67;;;;;;;14.96;78.25;96690.19;5074408;28;20216;-70
2021/10/02 02:28:43;;;;;;;4.73;4.33;;;;;;;14.82;78.71;96689.84;5074461;28;20185;-70
2021/10/02 02:31:09;;;;;;;4.60;4.20;;;;;;;14.73;79.38;96677.38;5074605;28;20201;-70
2021/10/02 02:33:37;;;;;;;4.67;4.20;;;;;;;14.78;79.45;96683.50;5074388;28;20177;-70
2021/10/02 02:36:04;;;;;;;4.30;3.77;;;;;;;14.69;79.72;96684.22;5073624;28;20666;-70
2021/10/02 02:38:30;;;;;;;5.70;4.40;;;;;;;14.73;79.24;96685.31;5073969;28;20700;-71
2021/10/02 02:40:56;;;;;;;4.67;4.27;;;;;;;14.73;79.56;96680.03;5074731;28;20220;-70
2021/10/02 02:43:21;;;;;;;5.43;4.27;;;;;;;14.83;79.01;96675.59;5075082;28;20644;-72
2021/10/02 02:45:59;;;;;;;5.23;4.73;;;;;;;14.90;79.02;96678.81;5074639;28;20669;-73
2021/10/02 02:48:30;;;;;;;5.30;4.20;;;;;;;14.69;79.58;96676.31;5059197;28;20696;-71
2021/10/02 02:51:03;;;;;;;5.60;4.73;;;;;;;14.76;79.46;96680.31;5074365;28;20375;-73
2021/10/02 02:53:52;;;;;;;7.83;4.83;;;;;;;14.64;79.95;96678.91;5074267;28;20282;-71
2021/10/02 02:56:26;;;;;;;9.23;6.63;;;;;;;14.59;80.20;96689.44;5073581;28;20204;-71
2021/10/02 02:58:54;;;;;;;5.83;4.80;;;;;;;14.41;81.17;96677.44;5074485;28;20267;-71
2021/10/02 03:01:22;;;;;;;5.70;5.03;;;;;;;14.47;80.63;96690.44;5056232;28;20350;-71
2021/10/02 03:03:51;;;;;;;5.53;4.93;;;;;;;14.31;81.33;96685.25;5073175;28;20190;-71
2021/10/02 03:06:18;;;;;;;6.10;4.80;;;;;;;14.27;81.54;96681.50;5073998;28;20185;-71
2021/10/02 03:08:51;;;;;;;9.03;5.00;;;;;;;14.26;81.70;96679.94;5073934;28;20196;-70
2021/10/02 03:11:19;;;;;;;9.37;5.03;;;;;;;14.21;81.90;96674.63;5073608;28;20193;-71
2021/10/02 03:13:48;;;;;;;5.67;4.93;;;;;;;14.26;81.60;96680.75;5073350;28;20268;-71
2021/10/02 03:16:17;;;;;;;5.53;4.70;;;;;;;14.21;81.90;96679.91;5073127;28;20216;-71
2021/10/02 03:18:45;;;;;;;6.07;4.97;;;;;;;14.18;82.01;96677.75;5073719;28;20186;-71
2021/10/02 03:21:13;;;;;;;5.70;4.80;;;;;;;14.17;82.16;96679.59;5073497;28;20183;-71
2021/10/02 03:23:39;;;;;;;7.10;4.97;;;;;;;14.14;82.24;96677.47;5073099;28;20185;-71
2021/10/02 03:26:06;;;;;;;10.00;5.33;;;;;;;14.09;82.45;96677.44;5073130;28;20189;-71
2021/10/02 03:28:33;;;;;;;6.57;4.97;;;;;;;14.09;82.54;96680.88;5073404;28;20560;-71
2021/10/02 03:30:59;;;;;;;4.70;4.30;;;;;;;14.08;82.51;96671.38;5073562;28;20227;-71
2021/10/02 03:33:25;;;;;;;6.00;5.13;;;;;;;14.14;82.15;96678.28;5074021;28;20580;-72
2021/10/02 03:35:51;;;;;;;6.23;4.80;;;;;;;14.08;82.54;96676.66;5073482;28;20197;-71
2021/10/02 03:38:17;;;;;;;5.93;5.07;;;;;;;14.07;82.50;96685.59;5072924;28;20193;-71
2021/10/02 03:40:43;;;;;;;6.27;5.17;;;;;;;14.20;81.84;96681.75;5073404;28;20185;-72
2021/10/02 03:43:08;;;;;;;9.20;5.40;;;;;;;13.95;83.03;96684.97;5073669;28;20181;-71
2021/10/02 03:45:36;;;;;;;7.17;5.27;;;;;;;13.94;83.27;96686.00;5073066;28;20230;-71
2021/10/02 03:48:03;;;;;;;7.00;5.43;;;;;;;13.93;83.49;96684.41;5072521;28;20541;-71
2021/10/02 03:50:29;;;;;;;5.97;4.97;;;;;;;13.94;83.34;96691.25;5055777;28;20220;-71
2021/10/02 03:52:55;;;;;;;5.43;4.57;;;;;;;13.99;83.15;96685.25;5072945;28;20231;-71
2021/10/02 03:55:20;;;;;;;6.43;4.73;;;;;;;13.99;83.15;96688.66;5072543;28;20205;-71
2021/10/02 03:57:46;;;;;;;6.47;4.70;;;;;;;13.97;83.24;96682.09;5072608;28;20545;-71
2021/10/02 04:00:12;;;;;;;5.37;4.83;;;;;;;13.99;83.32;96691.31;5073211;28;20185;-71
2021/10/02 04:02:38;;;;;;;5.37;4.60;;;;;;;14.02;83.27;96684.75;5072671;28;20216;-71
2021/10/02 04:05:04;;;;;;;4.93;4.53;;;;;;;14.03;83.30;96689.78;5072444;28;20318;-71
2021/10/02 04:07:30;;;;;;;5.10;4.60;;;;;;;14.16;82.74;96689.34;5072853;28;20189;-71
2021/10/02 04:09:55;;;;;;;7.63;5.13;;;;;;;14.10;83.10;96687.72;5072482;28;20236;-71
2021/10/02 04:12:20;;;;;;;6.50;4.90;;;;;;;14.04;83.63;96690.59;5056585;28;20197;-71
2021/10/02 04:14:48;;;;;;;5.87;5.13;;;;;;;13.93;83.81;96681.00;5072536;28;20236;-71
2021/10/02 04:17:14;;;;;;;6.20;5.10;;;;;;;14.01;83.32;96686.59;5072309;28;20188;-72
2021/10/02 04:19:40;;;;;;;6.90;5.20;;;;;;;14.06;83.17;96677.94;5072414;28;20181;-71
2021/10/02 04:22:05;;;;;;;5.43;4.90;;;;;;;14.10;82.86;96676.38;5072400;28;20184;-71
2021/10/02 04:24:31;;;;;;;6.87;5.33;;;;;;;14.05;83.16;96673.69;5072744;28;20185;-71
2021/10/02 04:26:59;;;;;;;8.40;5.00;;;;;;;13.97;83.50;96674.97;5072631;28;20178;-71
2021/10/02 04:29:25;;;;;;;5.53;4.93;;;;;;;13.88;83.88;96660.66;5072513;28;20189;-71
2021/10/02 04:31:50;;;;;;;5.60;4.97;;;;;;;13.96;83.79;96659.41;5054743;28;20522;-72
2021/10/02 04:34:16;;;;;;;5.70;5.10;;;;;;;13.92;83.93;96664.38;5072159;28;20238;-71
2021/10/02 04:36:41;;;;;;;7.27;4.37;;;;;;;13.89;83.83;96669.34;5072170;28;20173;-71
2021/10/02 04:39:07;;;;;;;5.67;4.77;;;;;;;13.98;83.49;96670.50;5072144;28;20173;-70
2021/10/02 04:41:32;;;;;;;5.73;4.90;;;;;;;13.99;83.31;96667.59;5072521;28;20216;-71
2021/10/02 04:43:57;;;;;;;5.93;5.33;;;;;;;13.88;84.08;96681.72;5072341;28;20264;-71
2021/10/02 04:46:23;;;;;;;5.37;4.83;;;;;;;13.95;83.65;96682.31;5072468;28;20260;-71
2021/10/02 04:48:48;;;;;;;6.23;5.17;;;;;;;13.83;84.17;96683.50;5071737;28;20216;-71
2021/10/02 04:51:14;;;;;;;6.57;5.73;;;;;;;13.95;83.59;96678.88;5072342;28;20181;-71
2021/10/02 04:53:39;;;;;;;6.47;5.20;;;;;;;13.79;84.38;96679.78;5072159;28;20181;-71
2021/10/02 04:56:08;;;;;;;6.60;5.20;;;;;;;14.10;82.82;96679.81;5071803;28;20205;-72
2021/10/02 04:58:33;;;;;;;6.10;5.37;;;;;;;14.12;82.40;96669.03;5072121;28;20181;-71
2021/10/02 05:00:59;;;;;;;6.60;5.50;;;;;;;14.03;82.85;96671.34;5071645;28;20594;-71
2021/10/02 05:03:25;;;;;;;6.37;5.33;;;;;;;14.10;82.38;96673.75;5053991;28;20193;-71
2021/10/02 05:05:51;;;;;;;6.33;5.43;;;;;;;14.07;82.91;96668.97;5071845;28;20271;-71
2021/10/02 05:08:17;;;;;;;6.30;5.23;;;;;;;14.19;82.02;96674.88;5071786;28;20264;-71
2021/10/02 05:10:43;;;;;;;6.47;5.70;;;;;;;14.07;82.47;96669.78;5071737;28;20299;-71
2021/10/02 05:13:08;;;;;;;6.93;5.53;;;;;;;14.11;81.88;96676.13;5071313;28;20269;-71
2021/10/02 05:15:34;;;;;;;8.17;5.57;;;;;;;14.20;81.80;96683.59;5071931;28;20262;-71
2021/10/02 05:18:00;;;;;;;6.37;5.73;;;;;;;14.13;82.04;96676.69;5072053;28;20269;-71
2021/10/02 05:20:27;;;;;;;6.27;5.30;;;;;;;14.06;82.67;96681.38;5072214;28;20208;-71
2021/10/02 05:22:52;;;;;;;7.40;5.87;;;;;;;14.08;82.40;96676.66;5072038;28;20665;-71
2021/10/02 05:25:18;;;;;;;6.40;5.80;;;;;;;13.87;83.60;96671.44;5071944;28;20213;-72
2021/10/02 05:27:43;;;;;;;6.20;5.60;;;;;;;13.99;83.05;96669.44;5073153;28;20223;-71
2021/10/02 05:30:09;;;;;;;6.40;5.80;;;;;;;13.88;83.74;96665.91;5075415;28;20211;-71
2021/10/02 05:32:34;;;;;;;6.27;5.43;;;;;;;13.86;83.91;96668.03;5075631;28;20265;-71
2021/10/02 05:35:00;;;;;;;6.27;5.67;;;;;;;13.92;83.61;96666.22;5075840;28;20230;-71
2021/10/02 05:37:25;;;;;;;8.33;6.50;;;;;;;13.83;83.70;96665.88;5075467;28;20189;-71
2021/10/02 05:39:51;;;;;;;6.80;6.10;;;;;;;13.82;83.91;96666.91;5075533;28;20269;-72
2021/10/02 05:42:16;;;;;;;8.93;6.17;;;;;;;13.86;83.92;96659.31;5074945;28;20185;-71
2021/10/02 05:44:41;;;;;;;7.10;6.00;;;;;;;13.73;84.79;96660.50;5075201;28;20291;-71
2021/10/02 05:47:07;;;;;;;7.93;6.30;;;;;;;14.01;83.36;96657.59;5074894;28;20637;-71
2021/10/02 05:49:33;;;;;;;7.37;6.53;;;;;;;14.11;83.03;96647.13;5057353;28;20774;-71
2021/10/02 05:51:58;;;;;;;7.53;6.53;;;;;;;14.03;83.57;96644.97;5074539;28;20649;-72
2021/10/02 05:54:24;;;;;;;7.23;6.47;;;;;;;14.16;83.06;96641.91;5074450;28;20201;-69
2021/10/02 05:56:49;;;;;;;6.30;5.70;;;;;;;14.20;82.84;96641.41;5075030;28;20701;-71
2021/10/02 05:59:14;;;;;;;6.47;5.87;;;;;;;14.28;82.46;96646.19;5074416;28;20193;-71
2021/10/02 06:01:40;;;;;;;7.53;6.60;;;;;;;14.30;82.41;96654.66;5056965;28;20638;-70
2021/10/02 06:04:05;;;;;;;7.50;6.20;;;;;;;14.40;81.95;96642.38;5056798;28;20208;-71
2021/10/02 06:06:31;;;;;;;6.53;5.90;;;;;;;14.46;81.43;96649.28;5074782;28;20174;-71
2021/10/02 06:08:56;;;;;;;8.27;5.97;;;;;;;14.53;81.37;96651.69;5056344;28;20186;-70
2021/10/02 06:11:22;;;;;;;9.33;6.40;;;;;;;14.56;80.63;96644.06;5074899;28;20177;-71
2021/10/02 06:13:47;;;;;;;7.87;6.20;;;;;;;14.45;81.13;96642.41;5075082;28;20185;-71
2021/10/02 06:16:14;;;;;;;7.10;6.00;;;;;;;14.39;81.36;96647.88;5074722;28;20750;-71
2021/10/02 06:18:40;;;;;;;9.17;5.57;;;;;;;14.32;81.74;96645.44;5075004;28;20185;-71
2021/10/02 06:21:10;;;;;;;8.00;6.00;;;;;;;14.28;82.21;96649.63;5057160;28;20189;-70
2021/10/02 06:23:36;;;;;;;7.13;6.13;;;;;;;14.32;82.43;96653.34;5074913;28;20314;-71
2021/10/02 06:26:02;;;;;;;9.17;5.27;;;;;;;14.39;82.09;96655.81;5074269;28;20188;-71
2021/10/02 06:28:28;;;;;;;7.33;5.93;;;;;;;14.50;81.52;96660.91;5074971;28;20548;-71
2021/10/02 06:30:54;;;;;;;6.07;5.40;;;;;;;14.44;81.76;96655.84;5074609;28;20189;-71
2021/10/02 06:33:19;;;;;;;6.50;5.40;;;;;;;14.38;81.72;96654.22;5074762;28;20187;-71
2021/10/02 06:35:44;;;;;;;7.57;5.77;;;;;;;14.42;81.19;96650.84;5074293;28;20243;-71
2021/10/02 06:38:10;;;;;;;6.17;5.57;;;;;;;14.29;81.81;96645.97;5074518;28;20185;-72
2021/10/02 06:40:38;;;;;;;6.10;5.43;;;;;;;14.33;81.89;96644.41;5074347;28;20209;-71
2021/10/02 06:43:04;;;;;;;7.50;5.70;;;;;;;14.36;82.01;96649.19;5074579;28;20185;-71
2021/10/02 06:45:29;;;;;;;6.43;5.70;;;;;;;14.41;81.58;96654.50;5074212;28;20586;-71
2021/10/02 06:47:54;;;;;;;6.70;5.47;;;;;;;14.32;82.13;96660.50;5039426;28;20196;-71
2021/10/02 06:50:20;;;;;;;6.63;5.77;;;;;;;14.34;82.21;96661.81;5074188;28;20243;-71
2021/10/02 06:52:45;;;;;;;7.20;5.40;;;;;;;14.60;80.98;96660.16;5055991;28;20188;-71
2021/10/02 06:55:11;;;;;;;6.07;5.27;;;;;;;14.44;81.82;96659.28;5073866;28;20259;-71
2021/10/02 06:57:37;;;;;;;7.60;5.83;;;;;;;14.53;81.42;96654.34;5073901;28;20208;-71
2021/10/02 07:00:03;;;;;;;8.20;5.27;;;;;;;14.72;80.66;96652.03;5073563;28;20641;-70
2021/10/02 07:02:29;;;;;;;8.53;5.23;;;;;;;14.82;80.24;96658.16;5055705;28;20189;-70
2021/10/02 07:04:54;;;;;;;6.87;4.93;;;;;;;14.49;82.84;96659.28;5073882;28;20200;-67
2021/10/02 07:07:20;;;;;;;5.90;5.30;;;;;;;14.71;81.55;96661.03;5073812;28;20188;-69
2021/10/02 07:09:46;;;;;;;5.23;4.73;;;;;;;15.08;79.60;96651.19;5073018;28;20225;-71
2021/10/02 07:12:12;;;;;;;6.87;5.40;;;;;;;15.17;78.77;96652.25;5072478;28;20189;-71
2021/10/02 07:14:37;;;;;;;6.93;5.20;;;;;;;15.30;78.13;96651.78;5072418;28;20189;-70
2021/10/02 07:17:03;;;;;;;7.47;5.30;;;;;;;15.33;78.38;96650.47;5072815;28;20653;-70
2021/10/02 07:19:28;;;;;;;8.60;5.53;;;;;;;15.49;77.62;96653.97;5073047;28;20188;-70
2021/10/02 07:21:54;;;;;;;8.17;5.77;;;;;;;15.61;76.96;96651.88;5072397;28;20640;-70
2021/10/02 07:24:19;;;;;;;7.80;5.93;;;;;;;15.72;76.62;96640.28;5072405;28;20177;-71
2021/10/02 07:26:45;;;;;;;8.00;6.00;;;;;;;15.60;77.30;96652.97;5055024;28;20735;-69
2021/10/02 07:29:11;;;;;;;8.73;5.10;;;;;;;15.66;77.18;96662.50;5072997;28;20645;-69
2021/10/02 07:31:36;;;;;;;9.40;5.83;;;;;;;15.86;76.55;96659.06;5072424;28;20189;-69
2021/10/02 07:34:03;;;;;;;8.10;5.37;;;;;;;15.90;76.23;96657.47;5072145;28;20185;-70
2021/10/02 07:36:28;;;;;;;6.50;5.13;;;;;;;15.86;75.81;96651.94;5071678;28;20209;-69
2021/10/02 07:38:55;;;;;;;5.97;4.67;;;;;;;15.82;75.23;96650.88;5071916;28;20211;-69
2021/10/02 07:41:21;;;;;;;5.77;4.60;;;;;;;15.73;75.97;96668.28;5071314;28;20189;-69
2021/10/02 07:43:54;;;;;;;10.00;5.33;;;;;;;15.65;75.75;96664.34;5072782;28;20185;-69
2021/10/02 07:46:20;;;;;;;7.07;4.50;;;;;;;15.77;75.27;96653.53;5071565;28;20612;-69
2021/10/02 07:48:46;;;;;;;6.30;4.30;;;;;;;15.76;75.90;96655.38;5054344;28;20192;-69
2021/10/02 07:51:12;;;;;;;5.50;4.37;;;;;;;15.92;75.71;96650.88;5071299;28;20517;-69
2021/10/02 07:53:39;;;;;;;8.17;4.77;;;;;;;16.12;75.29;96653.53;5072261;28;20660;-69
2021/10/02 07:56:07;;;;;;;6.63;4.67;;;;;;;16.39;74.08;96652.44;5071807;28;20208;-70
2021/10/02 07:58:32;;;;;;;4.87;4.37;;;;;;;16.54;73.15;96647.94;5072340;28;20197;-69
2021/10/02 08:00:58;;;;;;;4.70;4.20;;;;;;;16.79;72.23;96655.06;5053914;28;20181;-69
2021/10/02 08:03:24;;;;;;;6.17;4.63;;;;;;;16.77;72.02;96657.19;5071911;28;20227;-69
2021/10/02 08:05:50;;;;;;;6.07;4.60;;;;;;;16.75;71.40;96646.06;5071794;28;20190;-69
2021/10/02 08:08:19;;;;;;;10.20;4.90;;;;;;;16.65;72.06;96654.03;5072108;28;20185;-69
2021/10/02 08:10:46;;;;;;;6.50;4.40;;;;;;;16.73;71.98;96648.19;5033344;28;1107869;-69
2021/10/02 08:13:13;;;;;;;5.30;4.03;;;;;;;16.84;70.48;96655.03;5054334;28;20573;-69
2021/10/02 08:15:43;;;;;;;3.97;3.57;;;;;;;16.88;69.22;96658.75;5073031;28;20205;-70
2021/10/02 08:18:12;;;;;;;4.60;3.97;;;;;;;16.85;68.63;96654.00;5072742;28;20269;-69
2021/10/02 08:20:39;;;;;;;5.20;3.77;;;;;;;16.90;67.85;96647.88;5054899;28;20189;-69
2021/10/02 08:23:05;;;;;;;4.40;3.30;;;;;;;17.07;67.25;96647.56;5072177;28;20177;-70
2021/10/02 08:25:32;;;;;;;3.83;3.40;;;;;;;17.01;66.97;96644.13;5072337;28;20603;-70
2021/10/02 08:27:59;;;;;;;5.83;3.80;;;;;;;17.13;66.58;96641.19;5072669;28;20193;-69
2021/10/02 08:30:25;;;;;;;4.87;3.07;;;;;;;16.97;65.45;96645.75;5054608;28;20229;-69
2021/10/02 08:32:51;;;;;;;3.97;3.23;;;;;;;17.21;64.32;96649.38;5054567;28;20645;-69
2021/10/02 08:35:17;;;;;;;4.00;3.00;;;;;;;17.30;64.62;96652.22;5072435;28;20359;-69
2021/10/02 08:37:43;;;;;;;4.53;3.30;;;;;;;17.36;64.50;96651.16;5072294;28;20181;-69
2021/10/02 08:40:13;;;;;;;6.30;3.63;;;;;;;17.58;63.46;96646.25;5072586;28;20615;-69
2021/10/02 08:42:40;;;;;;;3.70;3.37;;;;;;;17.49;63.39;96641.81;5072335;28;20287;-69
2021/10/02 08:45:08;;;;;;;3.20;2.90;;;;;;;17.46;64.56;96635.19;5071562;28;20193;-69
2021/10/02 08:47:44;;;;;;;4.43;3.63;;;;;;;17.77;63.29;96644.59;5072594;28;20667;-69
2021/10/02 08:50:13;;;;;;;4.10;3.23;;;;;;;17.99;62.66;96640.72;5072471;28;20208;-68
2021/10/02 08:52:39;;;;;;;6.17;3.20;;;;;;;18.10;62.72;96632.41;5072126;28;20633;-68
2021/10/02 08:55:05;;;;;;;4.57;3.50;;;;;;;18.05;63.26;96637.75;5071820;28;20212;-70
2021/10/02 08:57:34;;;;;;;3.33;3.03;;;;;;;18.17;61.47;96632.06;5054321;28;20590;-68
2021/10/02 09:00:01;;;;;;;4.73;3.40;;;;;;;18.09;62.07;96636.13;5071746;28;20268;-68
2021/10/02 09:02:27;;;;;;;4.37;3.30;;;;;;;18.32;61.37;96633.81;5072942;28;20533;-68
2021/10/02 09:04:54;;;;;;;4.23;3.00;;;;;;;18.35;59.80;96630.59;5075616;28;20185;-69
2021/10/02 09:07:21;;;;;;;3.03;2.70;;;;;;;18.36;59.77;96624.22;5076359;28;20260;-69
2021/10/02 09:09:48;;;;;;;4.53;2.75;;;;;;;18.20;59.73;96616.41;5076087;28;20693;-69
2021/10/02 09:12:19;;;;;;;3.22;2.92;;;;;;;18.06;59.61;96620.75;5075098;28;20197;-69
2021/10/02 09:14:45;;;;;;;3.27;2.60;;;;;;;18.37;58.92;96615.19;5075617;28;20211;-68
2021/10/02 09:17:11;;;;;;;2.72;2.53;;;;;;;18.49;58.85;96613.75;5057787;28;20264;-69
2021/10/02 09:19:36;;;;;;;3.95;2.80;;;;;;;18.49;59.17;96611.09;5075879;28;20601;-69
2021/10/02 09:22:05;;;;;;;4.00;3.60;;;;;;;18.61;59.11;96611.50;5075417;28;20224;-69
2021/10/02 09:24:39;;;;;;;2.08;1.98;;;;;;;18.80;54.97;96603.59;5076219;28;20177;-69
2021/10/02 09:27:20;;;;;;;2.00;1.80;;;;;;;18.85;53.34;96597.44;5058359;28;20180;-69
2021/10/02 09:30:09;;;;;;;2.50;2.05;;;;;;;18.90;52.37;96595.50;5076269;28;20185;-69
2021/10/02 09:32:37;;;;;;;1.80;1.70;;;;;;;19.00;51.76;96592.72;5062180;28;20184;-69
2021/10/02 09:35:19;;;;;;;2.13;1.92;;;;;;;18.98;52.33;96589.59;5074722;28;20237;-69
2021/10/02 09:37:51;;;;;;;3.55;2.13;;;;;;;19.16;53.56;96588.03;5073516;28;20730;-69
2021/10/02 09:40:22;;;;;;;3.70;2.10;;;;;;;19.02;54.03;96595.13;5074845;28;20193;-70
2021/10/02 09:42:52;;;;;;;2.83;2.17;;;;;;;19.20;53.98;96596.22;5074751;28;20201;-69
2021/10/02 09:45:21;;;;;;;2.80;2.10;;;;;;;19.29;53.54;96589.97;5074163;28;20187;-69
2021/10/02 09:47:52;;;;;;;1.80;1.70;;;;;;;19.29;52.71;96586.53;5074289;28;20191;-69
2021/10/02 09:50:21;;;;;;;2.10;2.00;;;;;;;19.33;53.76;96584.91;5075430;28;20363;-69
2021/10/02 09:52:50;;;;;;;3.03;2.17;;;;;;;19.42;52.31;96573.31;5075105;28;20681;-70
2021/10/02 09:55:17;;;;;;;3.55;1.73;;;;;;;19.44;51.19;96578.34;5074129;28;20686;-70
2021/10/02 09:57:44;;;;;;;2.75;1.95;;;;;;;19.55;50.82;96577.16;5075416;28;20214;-69
2021/10/02 10:00:13;;;;;;;4.82;2.58;;;;;;;19.41;50.94;96574.38;5057148;28;20543;-70
2021/10/02 10:02:40;;;;;;;2.90;2.22;;;;;;;19.44;51.21;96571.19;5074800;28;20190;-71
2021/10/02 10:05:07;;;;;;;2.45;2.15;;;;;;;19.54;51.13;96559.63;5074802;28;20649;-71
2021/10/02 10:07:33;;;;;;;2.25;1.90;;;;;;;19.65;51.57;96552.28;5074520;28;20272;-71
2021/10/02 10:10:10;;;;;;;2.20;2.10;;;;;;;19.68;50.96;96546.38;5074365;28;20370;-71
2021/10/02 10:12:37;;;;;;;3.35;2.33;;;;;;;19.72;50.22;96540.19;5074649;28;20658;-72
2021/10/02 10:15:03;;;;;;;2.88;2.20;;;;;;;19.78;50.38;96538.25;5074893;28;20189;-72
2021/10/02 10:17:31;;;;;;;2.50;2.30;;;;;;;19.73;50.84;96532.97;5075333;28;20181;-70
2021/10/02 10:20:09;;;;;;;2.15;1.92;;;;;;;19.88;50.76;96535.41;5074628;28;20256;-72
2021/10/02 10:22:35;;;;;;;2.03;1.83;;;;;;;20.06;50.57;96523.91;5057159;28;20538;-71
2021/10/02 10:25:05;;;;;;;2.42;2.00;;;;;;;20.18;50.45;96524.22;5074796;28;20246;-71
2021/10/02 10:27:42;;;;;;;2.38;2.10;;;;;;;20.25;50.53;96521.97;5074760;28;20181;-72
2021/10/02 10:30:15;;;;;;;4.40;2.28;;;;;;;20.41;50.25;96524.38;5048121;28;20189;-72
2021/10/02 10:33:14;;;;;;;2.70;2.05;;;;;;;20.45;49.83;96517.41;5074264;28;20629;-72
2021/10/02 10:35:49;;;;;;;2.47;1.80;;;;;;;20.62;49.32;96514.91;5039962;28;20218;-72
2021/10/02 10:38:23;;;;;;;2.95;2.40;;;;;;;20.64;49.76;96516.19;5073510;28;20177;-72
2021/10/02 10:40:50;;;;;;;3.22;2.22;;;;;;;20.48;49.21;96514.13;5073660;28;20193;-73
2021/10/02 10:43:16;;;;;;;4.38;2.25;;;;;;;20.56;49.43;96514.22;5073723;28;20196;-72
2021/10/02 10:45:42;;;;;;;2.70;2.40;;;;;;;20.62;49.01;96502.38;5073313;28;20279;-73
2021/10/02 10:48:08;;;;;;;2.80;2.30;;;;;;;20.70;49.40;96508.88;5055539;28;20242;-72
2021/10/02 10:50:36;;;;;;;2.85;2.45;;;;;;;20.73;48.72;96508.31;5055539;28;20562;-72
2021/10/02 10:53:03;;;;;;;2.70;2.33;;;;;;;20.41;49.36;96508.41;5074367;28;20598;-73
2021/10/02 10:55:28;;;;;;;3.38;2.10;;;;;;;20.40;49.94;96496.97;5073351;28;20242;-72
2021/10/02 10:57:57;;;;;;;2.50;2.10;;;;;;;20.49;49.99;96505.84;5074076;28;20221;-73
2021/10/02 11:00:32;;;;;;;3.35;2.30;;;;;;;20.73;49.22;96497.66;5062402;28;20274;-73
2021/10/02 11:03:07;;;;;;;2.28;2.08;;;;;;;20.81;49.61;96496.94;5074302;28;20187;-73
2021/10/02 11:05:35;;;;;;;2.30;1.85;;;;;;;20.93;49.13;96491.88;5075797;28;20196;-73
2021/10/02 11:08:07;;;;;;;3.35;2.20;;;;;;;21.12;48.96;96487.19;5072830;28;20181;-73
2021/10/02 11:10:48;;;;;;;2.30;2.10;;;;;;;21.23;49.17;96487.00;5072454;28;20225;-73
2021/10/02 11:13:15;;;;;;;2.85;2.47;;;;;;;21.31;49.29;96486.28;5073278;28;20704;-73
2021/10/02 11:15:41;;;;;;;4.47;2.30;;;;;;;21.38;48.97;96481.31;5073091;28;20350;-74
2021/10/02 11:18:39;;;;;;;2.30;2.10;;;;;;;21.52;48.63;96472.16;5056014;28;20177;-74
2021/10/02 11:21:05;;;;;;;2.47;2.28;;;;;;;21.42;48.04;96463.63;5069372;28;20323;-73
2021/10/02 11:23:42;;;;;;;2.40;2.20;;;;;;;21.55;48.38;96462.78;5073485;28;20181;-73
2021/10/02 11:26:22;;;;;;;2.70;2.50;;;;;;;21.73;48.17;96448.44;5071938;28;20264;-73
2021/10/02 11:29:08;;;;;;;2.90;2.30;;;;;;;21.68;48.52;96453.13;5072466;28;20599;-73
2021/10/02 11:31:34;;;;;;;2.15;1.98;;;;;;;21.87;48.22;96449.13;5063424;28;20603;-72
2021/10/02 11:34:01;;;;;;;3.53;2.22;;;;;;;21.83;48.09;96447.41;5072479;28;20226;-73
2021/10/02 11:36:32;;;;;;;4.93;2.70;;;;;;;22.03;47.45;96446.09;5072909;28;20240;-73
2021/10/02 11:39:11;;;;;;;2.40;2.20;;;;;;;22.29;47.23;96441.66;5073908;28;20614;-74
2021/10/02 11:41:52;;;;;;;2.85;2.60;;;;;;;22.25;47.02;96438.78;5071842;28;20184;-73
2021/10/02 11:44:32;;;;;;;2.50;2.08;;;;;;;22.25;47.03;96435.34;5072362;28;20185;-73
2021/10/02 11:47:29;;;;;;;2.70;2.35;;;;;;;22.33;46.58;96427.38;5072313;28;20185;-73
2021/10/02 11:50:06;;;;;;;2.53;2.28;;;;;;;22.46;47.01;96422.97;5056959;28;20288;-73
2021/10/02 11:52:36;;;;;;;3.42;2.45;;;;;;;22.59;46.90;96408.72;5073321;28;20199;-73
2021/10/02 11:55:43;;;;;;;3.78;2.08;;;;;;;22.38;45.56;96405.84;5072633;28;20201;-73
2021/10/02 11:58:11;;;;;;;3.00;2.17;;;;;;;22.34;45.68;96399.56;5058355;28;20181;-72
2021/10/02 12:00:47;;;;;;;3.20;2.22;;;;;;;22.38;45.88;96405.84;5072642;28;20201;-73
2021/10/02 12:03:24;;;;;;;5.22;2.35;;;;;;;22.25;46.52;96404.09;5067148;28;20563;-74
2021/10/02 12:05:51;;;;;;;4.07;2.33;;;;;;;22.47;45.86;96397.84;5069028;28;20258;-74
2021/10/02 12:08:17;;;;;;;2.67;2.10;;;;;;;22.63;45.13;96390.16;5073583;28;20264;-74
2021/10/02 12:10:59;;;;;;;2.40;2.17;;;;;;;22.69;45.02;96384.34;5071405;28;20235;-74
2021/10/02 12:13:34;;;;;;;2.28;2.10;;;;;;;22.68;44.83;96382.78;5054425;28;20549;-73
2021/10/02 12:16:07;;;;;;;1.95;1.85;;;;;;;22.72;44.81;96373.09;5072464;28;20200;-72
2021/10/02 12:18:58;;;;;;;2.22;2.03;;;;;;;22.81;44.71;96367.72;5055085;28;20189;-73
2021/10/02 12:21:23;;;;;;;2.88;2.00;;;;;;;22.85;45.00;96366.00;5072756;28;20644;-72
2021/10/02 12:23:55;;;;;;;2.05;1.95;;;;;;;22.71;44.40;96360.00;5072804;28;20188;-72
2021/10/02 12:26:22;;;;;;;1.70;1.60;;;;;;;22.22;43.80;96359.31;5072758;28;20180;-73
2021/10/02 12:28:48;;;;;;;3.17;2.00;;;;;;;22.40;44.29;96357.47;5053777;28;20643;-72
2021/10/02 12:31:13;;;;;;;2.15;1.95;;;;;;;22.42;44.20;96352.59;5054894;28;20205;-72
2021/10/02 12:33:39;;;;;;;2.45;2.25;;;;;;;22.42;44.82;96355.25;5054264;28;20250;-73
2021/10/02 12:36:05;;;;;;;3.42;2.15;;;;;;;22.47;44.64;96355.09;5071817;28;20197;-72